KLDM/LDM METAR and TAF weather

Enter ICAO airport designator
Station Type Date Time Source
KLDM METAR 2022/06/26 07:15 UTC NOAA

KLDM 260715Z AUTO 25006KT 10SM BKN012 OVC016 18/16 A2992 RMK AO2 T01780160


Station Type Date Time Source
KLDM Decoded METAR 2022/06/26 07:15 UTC NOAA

Ludington, Mason County Airport, MI, United States (KLDM) 43-58N 86-24W
Jun 26, 2022 - 03:15 AM EDT / 2022.06.26 0715 UTC
Wind: from the WSW (250 degrees) at 7 MPH (6 KT):0
Visibility: 10 mile(s):0
Sky conditions: overcast
Temperature: 64.0 F (17.8 C)
Dew Point: 60.8 F (16.0 C)
Relative Humidity: 89%
Pressure (altimeter): 29.92 in. Hg (1013 hPa)
ob: KLDM 260715Z AUTO 25006KT 10SM BKN012 OVC016 18/16 A2992 RMK AO2 T01780160
cycle: 7

Station Type Date Time Source
KLDM TAF UTC NOAA

Error!

Example: see airport list